sensor_id;sensor_type;location;lat;lon;timestamp;pressure;altitude;pressure_sealevel;temperature;humidity
50790;BME280;37287;47.554;7.844;2024-01-30T00:02:03;99323.22;;;1.57;100.00
50790;BME280;37287;47.554;7.844;2024-01-30T00:04:29;99323.50;;;1.55;100.00
50790;BME280;37287;47.554;7.844;2024-01-30T00:06:56;99324.03;;;1.57;100.00
50790;BME280;37287;47.554;7.844;2024-01-30T00:09:23;99326.41;;;1.59;100.00
50790;BME280;37287;47.554;7.844;2024-01-30T00:11:50;99317.88;;;1.57;100.00
50790;BME280;37287;47.554;7.844;2024-01-30T00:14:17;99320.81;;;1.55;100.00
50790;BME280;37287;47.554;7.844;2024-01-30T00:16:44;99322.16;;;1.52;100.00
50790;BME280;37287;47.554;7.844;2024-01-30T00:19:11;99321.41;;;1.47;100.00
50790;BME280;37287;47.554;7.844;2024-01-30T00:21:38;99317.50;;;1.39;100.00
50790;BME280;37287;47.554;7.844;2024-01-30T00:24:05;99312.72;;;1.36;100.00
50790;BME280;37287;47.554;7.844;2024-01-30T00:26:32;99313.25;;;1.33;100.00
50790;BME280;37287;47.554;7.844;2024-01-30T00:28:59;99319.16;;;1.30;100.00
50790;BME280;37287;47.554;7.844;2024-01-30T00:31:26;99310.63;;;1.28;100.00
50790;BME280;37287;47.554;7.844;2024-01-30T00:33:52;99325.28;;;1.30;100.00
50790;BME280;37287;47.554;7.844;2024-01-30T00:36:19;99317.78;;;1.32;100.00
50790;BME280;37287;47.554;7.844;2024-01-30T00:38:46;99310.63;;;1.28;100.00
50790;BME280;37287;47.554;7.844;2024-01-30T00:41:13;99327.72;;;1.22;100.00
50790;BME280;37287;47.554;7.844;2024-01-30T00:43:40;99310.16;;;1.20;100.00
50790;BME280;37287;47.554;7.844;2024-01-30T00:46:06;99310.44;;;1.19;100.00
50790;BME280;37287;47.554;7.844;2024-01-30T00:48:33;99317.69;;;1.13;100.00
50790;BME280;37287;47.554;7.844;2024-01-30T00:51:00;99316.34;;;1.11;100.00
50790;BME280;37287;47.554;7.844;2024-01-30T00:53:26;99323.03;;;1.08;100.00
50790;BME280;37287;47.554;7.844;2024-01-30T00:55:53;99318.53;;;1.03;100.00
50790;BME280;37287;47.554;7.844;2024-01-30T00:58:20;99320.94;;;1.00;100.00
50790;BME280;37287;47.554;7.844;2024-01-30T01:00:46;99320.44;;;0.98;100.00
50790;BME280;37287;47.554;7.844;2024-01-30T01:03:13;99320.72;;;0.96;100.00
50790;BME280;37287;47.554;7.844;2024-01-30T01:05:41;99318.31;;;0.95;100.00
50790;BME280;37287;47.554;7.844;2024-01-30T01:08:07;99316.50;;;0.85;100.00
50790;BME280;37287;47.554;7.844;2024-01-30T01:10:35;99325.84;;;0.82;100.00
50790;BME280;37287;47.554;7.844;2024-01-30T01:13:02;99316.28;;;0.76;100.00
50790;BME280;37287;47.554;7.844;2024-01-30T01:15:29;99329.34;;;0.78;100.00
50790;BME280;37287;47.554;7.844;2024-01-30T01:17:56;99323.19;;;0.77;100.00
50790;BME280;37287;47.554;7.844;2024-01-30T01:20:23;99322.69;;;0.75;100.00
50790;BME280;37287;47.554;7.844;2024-01-30T01:22:49;99318.97;;;0.71;100.00
50790;BME280;37287;47.554;7.844;2024-01-30T01:25:16;99336.56;;;0.72;100.00
50790;BME280;37287;47.554;7.844;2024-01-30T01:27:43;99320.81;;;0.76;100.00
50790;BME280;37287;47.554;7.844;2024-01-30T01:30:18;99323.75;;;0.79;100.00
50790;BME280;37287;47.554;7.844;2024-01-30T01:32:49;99323.75;;;0.79;100.00
50790;BME280;37287;47.554;7.844;2024-01-30T01:35:28;99319.47;;;0.78;100.00
50790;BME280;37287;47.554;7.844;2024-01-30T01:37:55;99324.53;;;0.75;100.00
50790;BME280;37287;47.554;7.844;2024-01-30T01:40:25;99327.75;;;0.77;100.00
50790;BME280;37287;47.554;7.844;2024-01-30T01:42:54;99327.75;;;0.77;100.00
50790;BME280;37287;47.554;7.844;2024-01-30T01:45:21;99316.81;;;0.73;100.00
50790;BME280;37287;47.554;7.844;2024-01-30T01:47:51;99317.09;;;0.72;100.00
50790;BME280;37287;47.554;7.844;2024-01-30T01:50:18;99312.59;;;0.67;100.00
50790;BME280;37287;47.554;7.844;2024-01-30T01:52:50;99310.44;;;0.69;100.00
50790;BME280;37287;47.554;7.844;2024-01-30T01:55:19;99309.66;;;0.68;100.00
50790;BME280;37287;47.554;7.844;2024-01-30T01:57:52;99307.28;;;0.67;100.00
50790;BME280;37287;47.554;7.844;2024-01-30T02:00:19;99305.44;;;0.62;100.00
50790;BME280;37287;47.554;7.844;2024-01-30T02:02:46;99315.28;;;0.62;100.00
50790;BME280;37287;47.554;7.844;2024-01-30T02:05:15;99311.00;;;0.61;100.00
50790;BME280;37287;47.554;7.844;2024-01-30T02:07:42;99312.88;;;0.60;100.00
50790;BME280;37287;47.554;7.844;2024-01-30T02:10:10;99313.16;;;0.59;100.00
50790;BME280;37287;47.554;7.844;2024-01-30T02:12:37;99308.91;;;0.58;100.00
50790;BME280;37287;47.554;7.844;2024-01-30T02:15:04;99313.72;;;0.56;100.00
50790;BME280;37287;47.554;7.844;2024-01-30T02:17:31;99314.22;;;0.58;100.00
50790;BME280;37287;47.554;7.844;2024-01-30T02:19:59;99308.91;;;0.58;100.00
50790;BME280;37287;47.554;7.844;2024-01-30T02:22:26;99311.59;;;0.53;100.00
50790;BME280;37287;47.554;7.844;2024-01-30T02:24:53;99311.59;;;0.53;100.00
50790;BME280;37287;47.554;7.844;2024-01-30T02:27:20;99315.59;;;0.50;100.00
50790;BME280;37287;47.554;7.844;2024-01-30T02:29:47;99316.16;;;0.47;100.00
50790;BME280;37287;47.554;7.844;2024-01-30T02:32:14;99316.44;;;0.40;100.00
50790;BME280;37287;47.554;7.844;2024-01-30T02:34:45;99315.41;;;0.31;100.00
50790;BME280;37287;47.554;7.844;2024-01-30T02:37:12;99314.38;;;0.22;100.00
50790;BME280;37287;47.554;7.844;2024-01-30T02:39:39;99312.25;;;0.19;100.00
50790;BME280;37287;47.554;7.844;2024-01-30T02:42:06;99312.78;;;0.15;100.00
50790;BME280;37287;47.554;7.844;2024-01-30T02:44:32;99312.53;;;0.12;100.00
50790;BME280;37287;47.554;7.844;2024-01-30T02:46:59;99306.94;;;0.13;100.00
50790;BME280;37287;47.554;7.844;2024-01-30T02:49:26;99311.72;;;0.16;100.00
50790;BME280;37287;47.554;7.844;2024-01-30T02:51:54;99309.06;;;0.16;100.00
50790;BME280;37287;47.554;7.844;2024-01-30T02:54:21;99315.72;;;0.19;100.00
50790;BME280;37287;47.554;7.844;2024-01-30T02:56:48;99308.00;;;0.17;100.00
50790;BME280;37287;47.554;7.844;2024-01-30T02:59:14;99308.28;;;0.16;100.00
50790;BME280;37287;47.554;7.844;2024-01-30T03:01:44;99316.53;;;0.14;100.00
50790;BME280;37287;47.554;7.844;2024-01-30T03:04:11;99320.25;;;0.13;100.00
50790;BME280;37287;47.554;7.844;2024-01-30T03:06:39;99313.34;;;0.12;100.00
50790;BME280;37287;47.554;7.844;2024-01-30T03:09:10;99318.66;;;0.17;100.00
50790;BME280;37287;47.554;7.844;2024-01-30T03:11:37;99319.16;;;0.20;100.00
50790;BME280;37287;47.554;7.844;2024-01-30T03:14:04;99318.09;;;0.21;100.00
50790;BME280;37287;47.554;7.844;2024-01-30T03:16:31;99325.59;;;0.19;100.00
50790;BME280;37287;47.554;7.844;2024-01-30T03:18:57;99325.84;;;0.17;100.00
50790;BME280;37287;47.554;7.844;2024-01-30T03:21:24;99318.94;;;0.16;100.00
50790;BME280;37287;47.554;7.844;2024-01-30T03:23:51;99323.44;;;0.15;100.00
50790;BME280;37287;47.554;7.844;2024-01-30T03:26:17;99325.84;;;0.12;100.00
50790;BME280;37287;47.554;7.844;2024-01-30T03:28:44;99328.78;;;0.10;100.00
50790;BME280;37287;47.554;7.844;2024-01-30T03:31:14;99332.00;;;0.07;100.00
50790;BME280;37287;47.554;7.844;2024-01-30T03:33:41;99334.13;;;0.10;100.00
50790;BME280;37287;47.554;7.844;2024-01-30T03:36:08;99326.13;;;0.10;100.00
50790;BME280;37287;47.554;7.844;2024-01-30T03:38:35;99326.94;;;0.06;100.00
50790;BME280;37287;47.554;7.844;2024-01-30T03:41:02;99338.94;;;0.03;100.00
50790;BME280;37287;47.554;7.844;2024-01-30T03:43:29;99347.69;;;-0.02;100.00
50790;BME280;37287;47.554;7.844;2024-01-30T03:45:56;99341.88;;;-0.09;100.00
50790;BME280;37287;47.554;7.844;2024-01-30T03:48:22;99345.06;;;-0.12;100.00
50790;BME280;37287;47.554;7.844;2024-01-30T03:50:49;99336.84;;;-0.15;100.00
50790;BME280;37287;47.554;7.844;2024-01-30T03:53:17;99339.50;;;-0.21;100.00
50790;BME280;37287;47.554;7.844;2024-01-30T03:55:43;99346.13;;;-0.28;100.00
50790;BME280;37287;47.554;7.844;2024-01-30T03:58:10;99336.84;;;-0.31;100.00
50790;BME280;37287;47.554;7.844;2024-01-30T04:00:37;99342.97;;;-0.30;100.00
50790;BME280;37287;47.554;7.844;2024-01-30T04:03:04;99342.69;;;-0.39;100.00
50790;BME280;37287;47.554;7.844;2024-01-30T04:05:30;99345.09;;;-0.43;100.00
50790;BME280;37287;47.554;7.844;2024-01-30T04:07:57;99341.63;;;-0.43;100.00
50790;BME280;37287;47.554;7.844;2024-01-30T04:10:24;99342.69;;;-0.44;100.00
50790;BME280;37287;47.554;7.844;2024-01-30T04:12:51;99339.50;;;-0.41;100.00
50790;BME280;37287;47.554;7.844;2024-01-30T04:15:18;99346.97;;;-0.38;100.00
50790;BME280;37287;47.554;7.844;2024-01-30T04:17:45;99342.97;;;-0.41;100.00
50790;BME280;37287;47.554;7.844;2024-01-30T04:20:14;99344.28;;;-0.43;100.00
50790;BME280;37287;47.554;7.844;2024-01-30T04:22:45;99354.94;;;-0.43;100.00
50790;BME280;37287;47.554;7.844;2024-01-30T04:25:13;99354.94;;;-0.43;100.00
50790;BME280;37287;47.554;7.844;2024-01-30T04:27:39;99349.88;;;-0.45;100.00
50790;BME280;37287;47.554;7.844;2024-01-30T04:30:07;99360.53;;;-0.45;100.00
50790;BME280;37287;47.554;7.844;2024-01-30T04:32:34;99352.81;;;-0.46;100.00
50790;BME280;37287;47.554;7.844;2024-01-30T04:35:02;99352.25;;;-0.48;100.00
50790;BME280;37287;47.554;7.844;2024-01-30T04:37:33;99358.66;;;-0.55;100.00
50790;BME280;37287;47.554;7.844;2024-01-30T04:39:59;99353.06;;;-0.58;100.00
50790;BME280;37287;47.554;7.844;2024-01-30T04:42:26;99362.63;;;-0.62;100.00
50790;BME280;37287;47.554;7.844;2024-01-30T04:44:53;99363.97;;;-0.65;100.00
50790;BME280;37287;47.554;7.844;2024-01-30T04:47:19;99365.28;;;-0.62;100.00
50790;BME280;37287;47.554;7.844;2024-01-30T04:49:46;99360.78;;;-0.62;100.00
50790;BME280;37287;47.554;7.844;2024-01-30T04:52:13;99361.56;;;-0.61;100.00
50790;BME280;37287;47.554;7.844;2024-01-30T04:54:39;99361.84;;;-0.63;100.00
50790;BME280;37287;47.554;7.844;2024-01-30T04:57:06;99365.56;;;-0.59;100.00
50790;BME280;37287;47.554;7.844;2024-01-30T04:59:36;99369.00;;;-0.58;100.00
50790;BME280;37287;47.554;7.844;2024-01-30T05:02:03;99370.88;;;-0.64;100.00
50790;BME280;37287;47.554;7.844;2024-01-30T05:04:29;99372.75;;;-0.59;100.00
50790;BME280;37287;47.554;7.844;2024-01-30T05:06:56;99369.28;;;-0.65;100.00
50790;BME280;37287;47.554;7.844;2024-01-30T05:09:23;99372.44;;;-0.83;100.00
50790;BME280;37287;47.554;7.844;2024-01-30T05:11:50;99381.50;;;-0.84;100.00
50790;BME280;37287;47.554;7.844;2024-01-30T05:14:16;99376.94;;;-0.94;100.00
50790;BME280;37287;47.554;7.844;2024-01-30T05:16:44;99378.50;;;-1.04;100.00
50790;BME280;37287;47.554;7.844;2024-01-30T05:19:13;99376.63;;;-1.08;100.00
50790;BME280;37287;47.554;7.844;2024-01-30T05:21:41;99382.47;;;-1.11;100.00
50790;BME280;37287;47.554;7.844;2024-01-30T05:24:08;99384.59;;;-1.13;100.00
50790;BME280;37287;47.554;7.844;2024-01-30T05:26:36;99384.06;;;-1.15;100.00
50790;BME280;37287;47.554;7.844;2024-01-30T05:29:03;99385.63;;;-1.19;100.00
50790;BME280;37287;47.554;7.844;2024-01-30T05:31:30;99389.59;;;-1.22;100.00
50790;BME280;37287;47.554;7.844;2024-01-30T05:33:57;99386.69;;;-1.26;100.00
50790;BME280;37287;47.554;7.844;2024-01-30T05:36:24;99386.13;;;-1.28;100.00
50790;BME280;37287;47.554;7.844;2024-01-30T05:38:51;99387.19;;;-1.29;100.00
50790;BME280;37287;47.554;7.844;2024-01-30T05:41:18;99390.91;;;-1.30;100.00
50790;BME280;37287;47.554;7.844;2024-01-30T05:43:44;99390.34;;;-1.32;100.00
50790;BME280;37287;47.554;7.844;2024-01-30T05:46:11;99385.56;;;-1.35;100.00
50790;BME280;37287;47.554;7.844;2024-01-30T05:48:38;99386.63;;;-1.36;100.00
50790;BME280;37287;47.554;7.844;2024-01-30T05:51:05;99390.88;;;-1.35;100.00
50790;BME280;37287;47.554;7.844;2024-01-30T05:53:34;99393.53;;;-1.35;100.00
50790;BME280;37287;47.554;7.844;2024-01-30T05:56:02;99400.47;;;-1.34;100.00
50790;BME280;37287;47.554;7.844;2024-01-30T05:58:29;99412.44;;;-1.31;100.00
50790;BME280;37287;47.554;7.844;2024-01-30T06:00:56;99406.31;;;-1.32;100.00
50790;BME280;37287;47.554;7.844;2024-01-30T06:03:24;99410.00;;;-1.38;100.00
50790;BME280;37287;47.554;7.844;2024-01-30T06:05:51;99407.88;;;-1.36;100.00
50790;BME280;37287;47.554;7.844;2024-01-30T06:08:18;99411.88;;;-1.33;100.00
50790;BME280;37287;47.554;7.844;2024-01-30T06:10:44;99419.63;;;-1.27;100.00
50790;BME280;37287;47.554;7.844;2024-01-30T06:13:11;99416.97;;;-1.27;100.00
50790;BME280;37287;47.554;7.844;2024-01-30T06:15:38;99417.25;;;-1.18;100.00
50790;BME280;37287;47.554;7.844;2024-01-30T06:18:05;99414.91;;;-1.14;100.00
50790;BME280;37287;47.554;7.844;2024-01-30T06:20:31;99417.81;;;-1.16;100.00
50790;BME280;37287;47.554;7.844;2024-01-30T06:22:58;99429.19;;;-1.21;100.00
50790;BME280;37287;47.554;7.844;2024-01-30T06:25:25;99427.63;;;-1.16;100.00
50790;BME280;37287;47.554;7.844;2024-01-30T06:27:52;99432.38;;;-1.24;100.00
50790;BME280;37287;47.554;7.844;2024-01-30T06:30:19;99434.22;;;-1.29;100.00
50790;BME280;37287;47.554;7.844;2024-01-30T06:32:45;99436.59;;;-1.33;100.00
50790;BME280;37287;47.554;7.844;2024-01-30T06:35:12;99431.25;;;-1.38;100.00
50790;BME280;37287;47.554;7.844;2024-01-30T06:37:39;99428.81;;;-1.45;100.00
50790;BME280;37287;47.554;7.844;2024-01-30T06:40:06;99428.56;;;-1.48;100.00
50790;BME280;37287;47.554;7.844;2024-01-30T06:42:33;99437.84;;;-1.51;100.00
50790;BME280;37287;47.554;7.844;2024-01-30T06:44:59;99428.50;;;-1.53;100.00
50790;BME280;37287;47.554;7.844;2024-01-30T06:47:26;99437.78;;;-1.56;100.00
50790;BME280;37287;47.554;7.844;2024-01-30T06:49:53;99434.03;;;-1.60;100.00
50790;BME280;37287;47.554;7.844;2024-01-30T06:52:20;99436.44;;;-1.59;100.00
50790;BME280;37287;47.554;7.844;2024-01-30T06:54:46;99437.53;;;-1.60;100.00
50790;BME280;37287;47.554;7.844;2024-01-30T06:57:13;99438.00;;;-1.63;100.00
50790;BME280;37287;47.554;7.844;2024-01-30T06:59:41;99436.44;;;-1.64;100.00
50790;BME280;37287;47.554;7.844;2024-01-30T07:02:11;99432.16;;;-1.65;100.00
50790;BME280;37287;47.554;7.844;2024-01-30T07:04:38;99438.00;;;-1.68;100.00
50790;BME280;37287;47.554;7.844;2024-01-30T07:07:12;99445.69;;;-1.66;100.00
50790;BME280;37287;47.554;7.844;2024-01-30T07:09:40;99446.75;;;-1.67;100.00
50790;BME280;37287;47.554;7.844;2024-01-30T07:12:07;99444.88;;;-1.67;100.00
50790;BME280;37287;47.554;7.844;2024-01-30T07:14:34;99443.88;;;-1.61;100.00
50790;BME280;37287;47.554;7.844;2024-01-30T07:17:01;99443.88;;;-1.61;100.00
50790;BME280;37287;47.554;7.844;2024-01-30T07:19:28;99440.19;;;-1.60;100.00
50790;BME280;37287;47.554;7.844;2024-01-30T07:21:55;99449.97;;;-1.60;100.00
50790;BME280;37287;47.554;7.844;2024-01-30T07:24:21;99453.19;;;-1.58;100.00
50790;BME280;37287;47.554;7.844;2024-01-30T07:26:48;99453.97;;;-1.58;100.00
50790;BME280;37287;47.554;7.844;2024-01-30T07:29:15;99459.81;;;-1.56;100.00
50790;BME280;37287;47.554;7.844;2024-01-30T07:31:41;99447.09;;;-1.53;100.00
50790;BME280;37287;47.554;7.844;2024-01-30T07:34:08;99460.38;;;-1.53;100.00
50790;BME280;37287;47.554;7.844;2024-01-30T07:36:35;99459.88;;;-1.50;100.00
50790;BME280;37287;47.554;7.844;2024-01-30T07:39:02;99459.34;;;-1.47;100.00
50790;BME280;37287;47.554;7.844;2024-01-30T07:41:29;99459.13;;;-1.41;100.00
50790;BME280;37287;47.554;7.844;2024-01-30T07:43:56;99461.00;;;-1.36;100.00
50790;BME280;37287;47.554;7.844;2024-01-30T07:46:22;99458.91;;;-1.29;100.00
50790;BME280;37287;47.554;7.844;2024-01-30T07:48:49;99467.72;;;-1.28;100.00
50790;BME280;37287;47.554;7.844;2024-01-30T07:51:20;99472.47;;;-1.30;100.00
50790;BME280;37287;47.554;7.844;2024-01-30T07:53:52;99473.03;;;-1.28;100.00
50790;BME280;37287;47.554;7.844;2024-01-30T07:56:19;99478.09;;;-1.27;100.00
50790;BME280;37287;47.554;7.844;2024-01-30T07:58:46;99481.25;;;-1.30;100.00
50790;BME280;37287;47.554;7.844;2024-01-30T08:01:14;99478.09;;;-1.27;100.00
50790;BME280;37287;47.554;7.844;2024-01-30T08:03:41;99469.84;;;-1.25;100.00
50790;BME280;37287;47.554;7.844;2024-01-30T08:06:09;99477.59;;;-1.18;100.00
50790;BME280;37287;47.554;7.844;2024-01-30T08:08:36;99482.66;;;-1.12;100.00
50790;BME280;37287;47.554;7.844;2024-01-30T08:11:04;99481.66;;;-1.06;100.00
50790;BME280;37287;47.554;7.844;2024-01-30T08:13:31;99495.53;;;-0.93;100.00
50790;BME280;37287;47.554;7.844;2024-01-30T08:15:57;99486.78;;;-0.89;100.00
50790;BME280;37287;47.554;7.844;2024-01-30T08:18:24;99496.91;;;-0.80;100.00
50790;BME280;37287;47.554;7.844;2024-01-30T08:20:51;99494.25;;;-0.75;100.00
50790;BME280;37287;47.554;7.844;2024-01-30T08:23:18;99490.50;;;-0.79;100.00
50790;BME280;37287;47.554;7.844;2024-01-30T08:25:44;99494.00;;;-0.74;100.00
50790;BME280;37287;47.554;7.844;2024-01-30T08:28:11;99487.34;;;-0.71;100.00
50790;BME280;37287;47.554;7.844;2024-01-30T08:30:38;99487.13;;;-0.64;100.00
50790;BME280;37287;47.554;7.844;2024-01-30T08:33:06;99490.06;;;-0.56;100.00
50790;BME280;37287;47.554;7.844;2024-01-30T08:35:33;99488.22;;;-0.50;100.00
50790;BME280;37287;47.554;7.844;2024-01-30T08:38:00;99485.56;;;-0.50;100.00
50790;BME280;37287;47.554;7.844;2024-01-30T08:40:27;99483.97;;;-0.56;100.00
50790;BME280;37287;47.554;7.844;2024-01-30T08:42:55;99486.06;;;-0.58;100.00
50790;BME280;37287;47.554;7.844;2024-01-30T08:45:22;99485.28;;;-0.54;100.00
50790;BME280;37287;47.554;7.844;2024-01-30T08:47:49;99488.78;;;-0.48;100.00
50790;BME280;37287;47.554;7.844;2024-01-30T08:50:16;99479.44;;;-0.45;100.00
50790;BME280;37287;47.554;7.844;2024-01-30T08:52:42;99490.91;;;-0.45;100.00
50790;BME280;37287;47.554;7.844;2024-01-30T08:55:12;99480.00;;;-0.43;100.00
50790;BME280;37287;47.554;7.844;2024-01-30T08:57:39;99479.44;;;-0.50;100.00
50790;BME280;37287;47.554;7.844;2024-01-30T09:00:06;99474.66;;;-0.48;100.00
50790;BME280;37287;47.554;7.844;2024-01-30T09:02:35;99473.63;;;-0.42;100.00
50790;BME280;37287;47.554;7.844;2024-01-30T09:05:03;99480.00;;;-0.38;100.00
50790;BME280;37287;47.554;7.844;2024-01-30T09:07:29;99474.69;;;-0.33;100.00
50790;BME280;37287;47.554;7.844;2024-01-30T09:09:56;99471.50;;;-0.25;100.00
50790;BME280;37287;47.554;7.844;2024-01-30T09:12:23;99477.91;;;-0.21;100.00
50790;BME280;37287;47.554;7.844;2024-01-30T09:14:50;99469.38;;;-0.18;100.00
50790;BME280;37287;47.554;7.844;2024-01-30T09:17:16;99469.13;;;-0.11;100.00
50790;BME280;37287;47.554;7.844;2024-01-30T09:19:43;99471.28;;;-0.03;100.00
50790;BME280;37287;47.554;7.844;2024-01-30T09:22:10;99468.88;;;0.06;100.00
50790;BME280;37287;47.554;7.844;2024-01-30T09:24:36;99477.13;;;0.15;100.00
50790;BME280;37287;47.554;7.844;2024-01-30T09:27:03;99469.94;;;0.21;100.00
50790;BME280;37287;47.554;7.844;2024-01-30T09:29:30;99472.31;;;0.27;100.00
50790;BME280;37287;47.554;7.844;2024-01-30T09:31:57;99473.13;;;0.33;100.00
50790;BME280;37287;47.554;7.844;2024-01-30T09:34:24;99471.50;;;0.42;100.00
50790;BME280;37287;47.554;7.844;2024-01-30T09:36:51;99478.94;;;0.50;100.00
50790;BME280;37287;47.554;7.844;2024-01-30T09:39:17;99476.81;;;0.58;100.00
50790;BME280;37287;47.554;7.844;2024-01-30T09:42:38;99476.81;;;0.63;100.00
50790;BME280;37287;47.554;7.844;2024-01-30T09:44:58;99479.97;;;0.75;100.00
50790;BME280;37287;47.554;7.844;2024-01-30T09:47:26;99484.75;;;0.83;100.00
50790;BME280;37287;47.554;7.844;2024-01-30T09:49:52;99490.06;;;0.94;100.00
50790;BME280;37287;47.554;7.844;2024-01-30T09:52:20;99483.09;;;1.03;100.00
50790;BME280;37287;47.554;7.844;2024-01-30T09:54:48;99482.28;;;1.08;100.00
50790;BME280;37287;47.554;7.844;2024-01-30T09:57:15;99477.69;;;1.18;100.00
50790;BME280;37287;47.554;7.844;2024-01-30T09:59:42;99479.78;;;1.27;100.00
50790;BME280;37287;47.554;7.844;2024-01-30T10:02:10;99478.16;;;1.36;100.00
50790;BME280;37287;47.554;7.844;2024-01-30T10:04:37;99474.88;;;1.44;100.00
50790;BME280;37287;47.554;7.844;2024-01-30T10:07:04;99467.13;;;1.53;100.00
50790;BME280;37287;47.554;7.844;2024-01-30T10:09:34;99463.88;;;1.61;100.00
50790;BME280;37287;47.554;7.844;2024-01-30T10:12:01;99463.00;;;1.71;100.00
50790;BME280;37287;47.554;7.844;2024-01-30T10:14:30;99466.69;;;1.80;100.00
50790;BME280;37287;47.554;7.844;2024-01-30T10:16:57;99461.31;;;1.85;100.00
50790;BME280;37287;47.554;7.844;2024-01-30T10:19:24;99456.94;;;1.95;100.00
50790;BME280;37287;47.554;7.844;2024-01-30T10:21:51;99455.28;;;2.04;100.00
50790;BME280;37287;47.554;7.844;2024-01-30T10:24:18;99463.22;;;2.14;100.00
50790;BME280;37287;47.554;7.844;2024-01-30T10:26:45;99456.72;;;2.20;100.00
50790;BME280;37287;47.554;7.844;2024-01-30T10:29:11;99450.13;;;2.13;100.00
50790;BME280;37287;47.554;7.844;2024-01-30T10:31:38;99460.03;;;2.12;100.00
50790;BME280;37287;47.554;7.844;2024-01-30T10:34:05;99462.72;;;2.12;100.00
50790;BME280;37287;47.554;7.844;2024-01-30T10:36:46;99463.69;;;2.21;100.00
50790;BME280;37287;47.554;7.844;2024-01-30T10:39:17;99454.03;;;2.26;100.00
50790;BME280;37287;47.554;7.844;2024-01-30T10:41:44;99454.56;;;2.28;100.00
50790;BME280;37287;47.554;7.844;2024-01-30T10:44:18;99452.88;;;2.32;100.00
50790;BME280;37287;47.554;7.844;2024-01-30T10:46:51;99453.38;;;2.39;100.00
50790;BME280;37287;47.554;7.844;2024-01-30T10:49:23;99456.53;;;2.46;100.00
50790;BME280;37287;47.554;7.844;2024-01-30T10:51:52;99455.28;;;2.63;100.00
50790;BME280;37287;47.554;7.844;2024-01-30T10:54:19;99457.28;;;2.76;100.00
50790;BME280;37287;47.554;7.844;2024-01-30T10:56:47;99464.41;;;2.86;100.00
50790;BME280;37287;47.554;7.844;2024-01-30T10:59:15;99460.28;;;2.93;100.00
50790;BME280;37287;47.554;7.844;2024-01-30T11:01:42;99455.97;;;2.98;100.00
50790;BME280;37287;47.554;7.844;2024-01-30T11:04:09;99447.03;;;3.07;100.00
50790;BME280;37287;47.554;7.844;2024-01-30T11:06:42;99452.81;;;3.15;100.00
50790;BME280;37287;47.554;7.844;2024-01-30T11:09:12;99449.28;;;3.19;100.00
50790;BME280;37287;47.554;7.844;2024-01-30T11:11:50;99451.16;;;3.19;100.00
50790;BME280;37287;47.554;7.844;2024-01-30T11:14:23;99448.47;;;3.19;100.00
50790;BME280;37287;47.554;7.844;2024-01-30T11:16:49;99453.06;;;3.18;100.00
50790;BME280;37287;47.554;7.844;2024-01-30T11:19:22;99452.22;;;3.18;100.00
50790;BME280;37287;47.554;7.844;2024-01-30T11:21:51;99444.78;;;3.15;100.00
50790;BME280;37287;47.554;7.844;2024-01-30T11:24:24;99447.03;;;3.07;100.00
50790;BME280;37287;47.554;7.844;2024-01-30T11:27:00;99441.63;;;3.13;100.00
50790;BME280;37287;47.554;7.844;2024-01-30T11:29:30;99447.59;;;3.23;100.00
50790;BME280;37287;47.554;7.844;2024-01-30T11:31:58;99444.72;;;3.39;100.00
50790;BME280;37287;47.554;7.844;2024-01-30T11:34:25;99435.19;;;3.52;100.00
50790;BME280;37287;47.554;7.844;2024-01-30T11:36:56;99436.13;;;3.61;100.00
50790;BME280;37287;47.554;7.844;2024-01-30T11:39:25;99430.75;;;3.80;100.00
50790;BME280;37287;47.554;7.844;2024-01-30T11:41:55;99427.81;;;3.95;100.00
50790;BME280;37287;47.554;7.844;2024-01-30T11:44:22;99420.00;;;3.99;100.00
50790;BME280;37287;47.554;7.844;2024-01-30T11:46:50;99431.63;;;4.08;100.00
50790;BME280;37287;47.554;7.844;2024-01-30T11:49:18;99429.66;;;4.14;100.00
50790;BME280;37287;47.554;7.844;2024-01-30T11:51:48;99424.81;;;4.16;100.00
50790;BME280;37287;47.554;7.844;2024-01-30T11:54:18;99426.00;;;4.24;100.00
50790;BME280;37287;47.554;7.844;2024-01-30T11:56:45;99426.13;;;4.33;100.00
50790;BME280;37287;47.554;7.844;2024-01-30T11:59:12;99427.81;;;4.42;100.00
50790;BME280;37287;47.554;7.844;2024-01-30T12:01:38;99419.91;;;4.51;100.00
50790;BME280;37287;47.554;7.844;2024-01-30T12:04:05;99413.34;;;4.57;100.00
50790;BME280;37287;47.554;7.844;2024-01-30T12:06:37;99412.06;;;4.69;100.00
50790;BME280;37287;47.554;7.844;2024-01-30T12:09:04;99410.56;;;4.76;100.00
50790;BME280;37287;47.554;7.844;2024-01-30T12:11:30;99408.47;;;4.87;100.00
50790;BME280;37287;47.554;7.844;2024-01-30T12:13:57;99393.66;;;5.04;100.00
50790;BME280;37287;47.554;7.844;2024-01-30T12:16:24;99399.19;;;5.21;100.00
50790;BME280;37287;47.554;7.844;2024-01-30T12:18:59;99395.06;;;5.38;100.00
50790;BME280;37287;47.554;7.844;2024-01-30T12:21:28;99396.41;;;5.49;100.00
50790;BME280;37287;47.554;7.844;2024-01-30T12:23:56;99396.97;;;5.60;100.00
50790;BME280;37287;47.554;7.844;2024-01-30T12:26:24;99394.53;;;5.72;100.00
50790;BME280;37287;47.554;7.844;2024-01-30T12:28:55;99392.56;;;5.86;100.00
50790;BME280;37287;47.554;7.844;2024-01-30T12:31:26;99385.09;;;5.97;100.00
50790;BME280;37287;47.554;7.844;2024-01-30T12:33:54;99379.78;;;6.15;100.00
50790;BME280;37287;47.554;7.844;2024-01-30T12:36:21;99382.69;;;6.27;100.00
50790;BME280;37287;47.554;7.844;2024-01-30T12:38:49;99372.16;;;6.40;100.00
50790;BME280;37287;47.554;7.844;2024-01-30T12:41:16;99376.78;;;6.48;100.00
50790;BME280;37287;47.554;7.844;2024-01-30T12:43:43;99368.22;;;6.46;100.00
50790;BME280;37287;47.554;7.844;2024-01-30T12:46:10;99375.50;;;6.45;100.00
50790;BME280;37287;47.554;7.844;2024-01-30T12:48:37;99371.06;;;6.41;100.00
50790;BME280;37287;47.554;7.844;2024-01-30T12:51:04;99369.47;;;6.40;100.00
50790;BME280;37287;47.554;7.844;2024-01-30T12:53:31;99374.66;;;6.36;100.00
50790;BME280;37287;47.554;7.844;2024-01-30T12:55:57;99364.38;;;6.29;100.00
50790;BME280;37287;47.554;7.844;2024-01-30T12:58:24;99367.66;;;6.26;100.00